Time;durP1;ratioP1;P1;durP2;ratioP2;P2;SDS_P1;SDS_P2;PMS_P1;PMS_P2;Temp;Humidity;BMP_temperature;BMP_pressure;BME280_temperature;BME280_humidity;BME280_pressure;Samples;Min_cycle;Max_cycle;Signal;HPM_P1;HPM_P2
2022/04/20 00:01:29;;;;;;;30.90;14.52;;;;;;;26.05;63.49;98011.31;4943367;28;20059;-68
2022/04/20 00:04:18;;;;;;;50.35;14.90;;;;;;;25.97;59.14;98011.28;4947550;28;20451;-69
2022/04/20 00:07:00;;;;;;;35.33;15.48;;;;;;;25.93;62.75;98015.25;4940780;28;20050;-68
2022/04/20 00:09:49;;;;;;;37.38;15.18;;;;;;;25.95;65.65;98015.06;4947377;28;20123;-70
2022/04/20 00:12:31;;;;;;;31.27;14.95;;;;;;;25.91;65.61;98018.03;4946614;28;20053;-68
2022/04/20 00:15:20;;;;;;;36.33;15.65;;;;;;;25.87;61.08;98018.50;4941584;28;20059;-69
2022/04/20 00:18:02;;;;;;;31.45;14.27;;;;;;;25.86;66.51;98019.50;4948240;29;20043;-69
2022/04/20 00:20:51;;;;;;;38.60;15.02;;;;;;;25.81;65.35;98016.50;4949104;29;20701;-69
2022/04/20 00:23:33;;;;;;;35.10;15.85;;;;;;;25.76;64.06;98013.50;4947777;28;20365;-69
2022/04/20 00:26:22;;;;;;;29.83;14.88;;;;;;;25.72;65.93;98020.91;4947354;28;20058;-69
2022/04/20 00:29:04;;;;;;;44.05;15.75;;;;;;;25.76;65.69;98022.25;4948264;29;20146;-69
2022/04/20 00:31:53;;;;;;;38.15;15.88;;;;;;;25.86;68.91;98024.78;4945994;28;20051;-69
2022/04/20 00:34:35;;;;;;;31.98;14.85;;;;;;;25.80;68.38;98020.94;4947840;28;20047;-69
2022/04/20 00:37:24;;;;;;;40.90;15.23;;;;;;;25.76;67.12;98024.91;4947139;29;20058;-68
2022/04/20 00:40:19;;;;;;;38.55;15.52;;;;;;;25.71;68.15;98029.78;4932456;29;20051;-69
2022/04/20 00:42:55;;;;;;;36.90;15.20;;;;;;;25.75;70.27;98032.97;4937855;29;20491;-70
2022/04/20 00:45:45;;;;;;;32.75;16.20;;;;;;;25.73;70.81;98035.75;4944402;29;20133;-69
2022/04/20 00:48:28;;;;;;;37.35;15.77;;;;;;;25.73;70.98;98034.94;4935291;28;20055;-69
2022/04/20 00:51:17;;;;;;;39.60;16.10;;;;;;;25.73;71.75;98034.94;4918542;29;20051;-68
2022/04/20 00:54:03;;;;;;;46.05;16.75;;;;;;;25.74;69.71;98026.03;4948754;29;20047;-69
2022/04/20 00:56:58;;;;;;;35.00;16.88;;;;;;;25.70;66.37;98032.63;4935617;29;20064;-68
2022/04/20 00:59:36;;;;;;;37.75;17.27;;;;;;;25.75;71.98;98041.72;4928997;29;20083;-69
2022/04/20 01:02:28;;;;;;;46.65;17.50;;;;;;;25.78;70.01;98053.78;4947356;29;20101;-69
2022/04/20 01:05:10;;;;;;;41.75;17.75;;;;;;;25.84;69.45;98079.53;4948167;29;20059;-70
2022/04/20 01:08:17;;;;;;;59.75;22.17;;;;;;;26.01;60.89;98094.47;4948907;29;20083;-70
2022/04/20 01:11:16;;;;;;;72.60;24.90;;;;;;;26.08;61.87;98071.72;4947758;29;20082;-70
2022/04/20 01:14:25;;;;;;;71.82;25.88;;;;;;;26.17;60.39;98118.31;4931878;29;20769;-69
2022/04/20 01:17:32;;;;;;;95.18;35.10;;;;;;;26.18;57.96;98093.53;4929924;29;20194;-70
2022/04/20 01:20:41;;;;;;;95.88;36.25;;;;;;;26.17;58.77;98089.28;4933975;29;20526;-70
2022/04/20 01:24:00;;;;;;;108.60;35.33;;;;;;;26.22;61.01;98110.75;4885830;29;20162;-69
2022/04/20 01:26:56;;;;;;;82.75;36.67;;;;;;;26.23;59.07;98112.41;4925981;28;20147;-70
2022/04/20 01:30:21;;;;;;;89.53;34.92;;;;;;;26.33;60.49;98108.84;4949606;28;20052;-69
2022/04/20 01:33:26;;;;;;;88.55;35.60;;;;;;;26.36;57.65;98116.44;4945992;28;20058;-69
2022/04/20 01:36:16;;;;;;;70.18;30.67;;;;;;;26.43;59.88;98113.00;4965037;28;20043;-70
2022/04/20 01:38:58;;;;;;;78.40;30.92;;;;;;;26.49;58.38;98103.63;4964515;28;20137;-69
2022/04/20 01:41:49;;;;;;;63.28;28.45;;;;;;;26.56;58.65;98123.94;4923163;29;20062;-69
2022/04/20 01:44:33;;;;;;;69.63;28.45;;;;;;;26.63;57.17;98129.41;4943195;28;20047;-70
2022/04/20 01:47:46;;;;;;;;;;;;;;;26.73;57.71;98108.16;4939914;28;20139;-69
2022/04/20 01:51:46;;;;;;;59.47;23.98;;;;;;;26.75;56.00;98106.97;4912161;29;19926;-69
2022/04/20 01:54:03;;;;;;;50.67;21.67;;;;;;;26.87;56.07;98110.97;4919346;29;20369;-70
2022/04/20 01:56:59;;;;;;;55.72;21.40;;;;;;;26.99;57.50;98114.97;4928998;29;20078;-70
2022/04/20 01:59:55;;;;;;;53.08;21.05;;;;;;;27.03;54.66;98089.88;4911153;29;20147;-70
2022/04/20 02:02:47;;;;;;;60.97;20.92;;;;;;;27.16;55.03;98062.94;4927901;29;20055;-69
2022/04/20 02:05:51;;;;;;;37.78;18.75;;;;;;;27.36;56.81;98052.84;4927651;29;20195;-70
2022/04/20 02:08:49;;;;;;;54.05;19.13;;;;;;;27.46;51.15;98050.81;4908398;29;20047;-69
2022/04/20 02:12:04;;;;;;;58.47;18.77;;;;;;;27.70;56.63;98057.91;4919448;29;20070;-69
2022/04/20 02:15:06;;;;;;;55.00;19.52;;;;;;;27.84;56.31;98061.72;4917692;29;20074;-70
2022/04/20 02:18:09;;;;;;;72.97;22.65;;;;;;;28.28;53.57;98062.88;4897302;29;20075;-69
2022/04/20 02:21:02;;;;;;;47.53;19.77;;;;;;;28.88;53.65;98084.28;4909451;29;20060;-70
2022/04/20 02:23:51;;;;;;;40.00;19.70;;;;;;;29.29;55.76;98097.25;4919404;29;20436;-70
2022/04/20 02:26:33;;;;;;;47.63;21.08;;;;;;;29.66;48.46;98113.19;4927983;29;20543;-70
2022/04/20 02:29:22;;;;;;;49.08;20.00;;;;;;;30.11;49.61;98110.59;4930398;29;20055;-70
2022/04/20 02:32:05;;;;;;;51.70;19.25;;;;;;;30.56;45.66;98109.59;4925758;29;20131;-70
2022/04/20 02:34:54;;;;;;;47.60;19.73;;;;;;;30.67;45.69;98111.75;4926936;29;20353;-70
2022/04/20 02:37:49;;;;;;;42.70;19.65;;;;;;;30.85;46.13;98116.66;4910624;29;20114;-71
2022/04/20 02:40:39;;;;;;;63.00;20.05;;;;;;;30.96;44.57;98119.66;4909195;29;20051;-69
2022/04/20 02:43:20;;;;;;;53.30;19.38;;;;;;;31.26;44.84;98127.53;4925949;29;20115;-68
2022/04/20 02:46:09;;;;;;;51.58;18.05;;;;;;;31.52;44.69;98133.94;4909253;29;20086;-68
2022/04/20 02:48:51;;;;;;;53.95;18.15;;;;;;;31.59;46.23;98131.31;4940993;28;20046;-68
2022/04/20 02:51:41;;;;;;;49.65;17.50;;;;;;;31.76;45.46;98138.06;4928410;29;20118;-68
2022/04/20 02:54:33;;;;;;;50.17;18.17;;;;;;;31.95;44.28;98136.53;4943811;29;20055;-69
2022/04/20 02:57:16;;;;;;;48.90;18.00;;;;;;;31.85;44.47;98134.19;4929850;29;20058;-68
2022/04/20 03:00:05;;;;;;;51.00;18.48;;;;;;;31.79;43.53;98136.81;4942123;29;20137;-68
2022/04/20 03:03:14;;;;;;;37.70;15.52;;;;;;;31.92;42.50;98142.25;4941401;29;20051;-69
2022/04/20 03:05:57;;;;;;;41.28;16.20;;;;;;;31.86;40.89;98143.00;4927731;28;20092;-70
2022/04/20 03:08:47;;;;;;;41.30;13.85;;;;;;;32.02;43.56;98148.03;4937497;28;20058;-70
2022/04/20 03:11:40;;;;;;;41.83;14.20;;;;;;;31.98;44.88;98154.81;4924116;29;20048;-70
2022/04/20 03:14:21;;;;;;;43.20;14.02;;;;;;;31.97;46.84;98163.81;4944882;28;20360;-69
2022/04/20 03:17:11;;;;;;;35.13;13.23;;;;;;;32.09;45.74;98164.91;4944466;28;20106;-69
2022/04/20 03:19:53;;;;;;;44.55;11.70;;;;;;;32.20;40.92;98179.56;4930241;29;20475;-69
2022/04/20 03:22:42;;;;;;;30.17;9.88;;;;;;;32.47;41.41;98173.38;4943675;29;20518;-70
2022/04/20 03:25:24;;;;;;;33.35;10.07;;;;;;;32.55;40.81;98173.22;4944031;29;20582;-69
2022/04/20 03:28:31;;;;;;;25.98;9.63;;;;;;;32.67;41.95;98165.47;4945163;28;20062;-70
2022/04/20 03:31:13;;;;;;;29.73;9.32;;;;;;;32.60;40.62;98167.28;4933284;28;20135;-69
2022/04/20 03:34:02;;;;;;;26.92;8.98;;;;;;;32.58;40.08;98180.81;4919180;29;20052;-69
2022/04/20 03:36:44;;;;;;;24.80;9.52;;;;;;;32.74;41.31;98174.34;4910855;29;20045;-70
2022/04/20 03:39:33;;;;;;;37.95;10.93;;;;;;;32.69;41.50;98182.13;4923950;29;20051;-70
2022/04/20 03:42:15;;;;;;;32.17;11.25;;;;;;;32.89;40.38;98193.69;4946700;28;20047;-69
2022/04/20 03:45:04;;;;;;;36.40;12.30;;;;;;;33.04;39.98;98191.72;4930152;29;20055;-69
2022/04/20 03:47:52;;;;;;;36.65;11.93;;;;;;;33.13;41.82;98187.00;4930949;28;20094;-70
2022/04/20 03:50:41;;;;;;;39.65;14.07;;;;;;;33.22;42.15;98183.16;4934686;28;20059;-70
2022/04/20 03:53:25;;;;;;;48.58;15.40;;;;;;;33.42;41.55;98185.88;4913407;29;20123;-69
2022/04/20 03:56:14;;;;;;;47.88;17.05;;;;;;;33.00;39.29;98193.13;4931758;29;20757;-69
2022/04/20 03:58:56;;;;;;;49.83;17.77;;;;;;;32.94;38.99;98190.44;4931314;29;20047;-69
2022/04/20 04:01:45;;;;;;;45.00;16.80;;;;;;;33.05;38.95;98193.34;4927680;29;20146;-70
2022/04/20 04:04:28;;;;;;;53.55;16.80;;;;;;;33.36;41.41;98197.38;4912850;29;20051;-70
2022/04/20 04:07:28;;;;;;;46.33;18.80;;;;;;;33.82;40.93;98194.75;4929433;28;20058;-70
2022/04/20 04:10:21;;;;;;;52.75;18.73;;;;;;;33.68;38.38;98195.75;4943786;29;20482;-69
2022/04/20 04:13:03;;;;;;;47.70;16.10;;;;;;;33.88;38.89;98201.13;4949086;29;20059;-69
2022/04/20 04:15:58;;;;;;;44.60;15.25;;;;;;;34.21;46.11;98187.72;4934836;29;20067;-69
2022/04/20 04:18:40;;;;;;;55.67;16.90;;;;;;;34.47;42.50;98193.88;4931492;28;20103;-69
2022/04/20 04:21:30;;;;;;;45.85;15.48;;;;;;;34.72;41.35;98195.84;4951383;28;20055;-68
2022/04/20 04:24:58;;;;;;;39.92;15.32;;;;;;;34.82;39.42;98191.72;4944963;28;20047;-69
2022/04/20 04:27:23;;;;;;;41.20;13.93;;;;;;;35.19;39.82;98197.31;4931074;29;20067;-68
2022/04/20 04:30:09;;;;;;;47.65;16.02;;;;;;;35.18;38.02;98199.16;4945990;29;20055;-66
2022/04/20 04:33:04;;;;;;;53.15;14.98;;;;;;;35.29;36.56;98198.50;4941598;28;20052;-69
2022/04/20 04:35:46;;;;;;;41.85;16.45;;;;;;;35.41;39.84;98187.91;4942650;29;20083;-69
2022/04/20 04:38:37;;;;;;;43.38;15.73;;;;;;;35.50;39.30;98193.84;4922743;29;20133;-69
2022/04/20 04:41:22;;;;;;;38.78;13.68;;;;;;;35.86;38.51;98191.31;4945291;29;20053;-70
2022/04/20 04:44:12;;;;;;;34.95;13.73;;;;;;;35.86;37.85;98183.25;4930002;29;20074;-68
2022/04/20 04:50:14;;;;;;;42.53;14.25;;;;;;;36.40;40.68;98195.13;4894187;29;20493;-65
2022/04/20 04:52:49;;;;;;;43.15;15.35;;;;;;;36.45;32.85;98195.31;4908911;29;20083;-68
2022/04/20 04:55:37;;;;;;;31.65;15.30;;;;;;;36.63;42.11;98192.63;4893849;29;20100;-68
2022/04/20 04:58:19;;;;;;;51.85;16.05;;;;;;;36.59;38.61;98199.47;4908961;29;20071;-68
2022/04/20 05:01:15;;;;;;;33.60;14.07;;;;;;;36.38;32.92;98198.06;4893289;29;20052;-67
2022/04/20 05:03:53;;;;;;;49.78;13.30;;;;;;;36.55;36.03;98187.56;4909042;29;20515;-68
2022/04/20 05:06:45;;;;;;;45.47;14.27;;;;;;;36.69;39.44;98188.25;4891895;29;20040;-69
2022/04/20 05:09:39;;;;;;;42.50;16.05;;;;;;;36.66;36.28;98189.50;4892405;29;20157;-68
2022/04/20 05:12:29;;;;;;;44.83;15.63;;;;;;;36.85;34.67;98197.56;4890501;29;20137;-69
2022/04/20 05:15:12;;;;;;;46.33;16.10;;;;;;;36.56;34.77;98186.50;4912548;29;20388;-68
2022/04/20 05:18:02;;;;;;;43.10;13.93;;;;;;;36.82;36.20;98187.25;4928230;29;20047;-68
2022/04/20 05:20:51;;;;;;;39.80;12.70;;;;;;;36.64;39.49;98185.41;4925850;29;20082;-69
2022/04/20 05:23:33;;;;;;;46.75;13.90;;;;;;;36.48;36.07;98177.94;4911993;29;20487;-68
2022/04/20 05:26:23;;;;;;;39.13;13.20;;;;;;;36.54;35.72;98180.56;4917217;29;20146;-67
2022/04/20 05:29:06;;;;;;;47.00;13.35;;;;;;;36.59;31.41;98175.31;4913077;29;20055;-66
2022/04/20 05:32:08;;;;;;;39.50;12.80;;;;;;;36.90;35.29;98168.97;4910410;29;20059;-67
2022/04/20 05:34:50;;;;;;;46.00;14.88;;;;;;;37.20;37.01;98160.94;4910158;29;20285;-67
2022/04/20 05:44:07;;;;;;;35.40;11.93;;;;;;;37.11;37.97;98164.97;4925311;29;20067;-67
2022/04/20 05:46:50;;;;;;;30.92;10.30;;;;;;;37.11;38.49;98164.97;4904754;29;20126;-69
2022/04/20 05:49:46;;;;;;;33.92;9.80;;;;;;;37.24;33.98;98162.13;4911698;29;20139;-69
2022/04/20 05:52:22;;;;;;;30.05;10.27;;;;;;;37.11;33.32;98156.91;4922268;29;20055;-70
2022/04/20 05:55:10;;;;;;;29.85;10.38;;;;;;;37.02;33.54;98153.72;4940928;29;20134;-69
2022/04/20 05:58:00;;;;;;;26.75;8.20;;;;;;;37.02;33.48;98150.22;4909104;29;20055;-70
2022/04/20 06:00:49;;;;;;;23.77;6.95;;;;;;;37.29;34.17;98146.13;4904271;29;20044;-69
2022/04/20 06:04:00;;;;;;;40.22;9.57;;;;;;;37.46;35.76;98140.88;4912341;29;20241;-70
2022/04/20 06:06:57;;;;;;;24.90;9.35;;;;;;;37.66;32.57;98137.94;4908869;29;20068;-70
2022/04/20 06:09:58;;;;;;;27.23;8.32;;;;;;;37.09;27.55;98134.81;4927676;29;20054;-70
2022/04/20 06:12:52;;;;;;;23.80;7.45;;;;;;;37.41;30.57;98133.53;4926487;29;20489;-70
2022/04/20 06:15:44;;;;;;;29.70;9.02;;;;;;;37.19;29.76;98128.94;4923186;29;20043;-70
2022/04/20 06:18:43;;;;;;;24.55;8.05;;;;;;;37.33;34.62;98120.44;4909494;29;20052;-70
2022/04/20 06:21:35;;;;;;;35.10;8.00;;;;;;;37.37;28.04;98126.16;4911137;29;20051;-70
2022/04/20 06:24:38;;;;;;;26.53;7.47;;;;;;;37.54;31.06;98121.72;4908367;29;20312;-70
2022/04/20 06:27:52;;;;;;;19.05;6.90;;;;;;;37.43;29.75;98118.00;4919512;29;20052;-70
2022/04/20 06:30:59;;;;;;;33.50;7.70;;;;;;;37.58;32.71;98114.03;4922062;29;20119;-69
2022/04/20 06:33:47;;;;;;;27.05;7.22;;;;;;;37.65;33.10;98099.44;4925426;29;20043;-70
2022/04/20 06:36:49;;;;;;;27.00;7.22;;;;;;;37.41;37.44;98103.13;4910942;29;20063;-71
2022/04/20 06:39:31;;;;;;;17.65;7.03;;;;;;;37.30;33.11;98104.75;4911787;29;20047;-69
2022/04/20 06:42:46;;;;;;;28.27;7.35;;;;;;;37.02;31.47;98093.81;4922067;29;20675;-68
2022/04/20 06:45:54;;;;;;;17.30;6.25;;;;;;;37.29;34.70;98091.53;4922832;29;20051;-68
2022/04/20 06:49:09;;;;;;;24.58;6.60;;;;;;;37.34;32.86;98102.44;4907168;28;20110;-71
2022/04/20 06:58:32;;;;;;;23.17;6.72;;;;;;;37.08;28.42;98084.81;4933254;28;20142;-67
2022/04/20 07:01:41;;;;;;;26.35;7.28;;;;;;;37.42;31.96;98088.66;4913748;28;20487;-68
2022/04/20 07:04:56;;;;;;;16.45;6.60;;;;;;;37.29;31.84;98078.09;4927237;29;20367;-67
2022/04/20 07:08:10;;;;;;;31.17;6.40;;;;;;;37.27;26.11;98088.28;4922600;28;20058;-68
2022/04/20 07:11:12;;;;;;;22.23;6.28;;;;;;;37.45;31.68;98078.22;4917527;29;20047;-68
2022/04/20 07:13:57;;;;;;;30.88;6.95;;;;;;;37.30;28.10;98080.56;4944104;28;20058;-69
2022/04/20 07:16:46;;;;;;;24.23;6.72;;;;;;;37.41;29.58;98068.19;4946465;28;20054;-68
2022/04/20 07:19:40;;;;;;;27.15;6.93;;;;;;;37.43;33.06;98066.91;4936327;29;20047;-69
2022/04/20 07:22:46;;;;;;;27.13;7.30;;;;;;;37.35;33.81;98064.56;4945937;28;20762;-69
2022/04/20 07:25:38;;;;;;;28.70;7.63;;;;;;;37.22;30.36;98070.16;4926177;29;20071;-69
2022/04/20 07:28:42;;;;;;;24.25;7.65;;;;;;;37.28;28.48;98066.53;4943927;28;20114;-69
2022/04/20 07:31:47;;;;;;;26.88;7.03;;;;;;;37.19;32.88;98059.06;4943589;28;20099;-69
2022/04/20 07:35:11;;;;;;;24.42;7.30;;;;;;;37.33;30.59;98053.22;4925034;28;20051;-68
2022/04/20 07:38:32;;;;;;;23.13;7.47;;;;;;;37.34;30.44;98052.19;4926659;28;20047;-69
2022/04/20 07:41:40;;;;;;;17.67;6.07;;;;;;;37.38;29.95;98047.97;4948297;28;20121;-69
2022/04/20 07:44:48;;;;;;;25.50;6.97;;;;;;;37.45;30.40;98048.66;4947269;29;20066;-70
2022/04/20 07:47:48;;;;;;;25.58;7.85;;;;;;;37.44;30.55;98047.03;4948170;29;20062;-69
2022/04/20 07:50:55;;;;;;;22.70;6.65;;;;;;;37.39;30.10;98040.72;4929089;29;20055;-70
2022/04/20 07:53:51;;;;;;;17.45;5.63;;;;;;;37.23;30.85;98031.47;4869128;29;20044;-69
2022/04/20 07:56:41;;;;;;;22.60;6.60;;;;;;;37.26;31.05;98032.88;4926449;29;20091;-69
2022/04/20 07:59:43;;;;;;;25.80;6.65;;;;;;;37.27;29.04;98027.28;4925254;29;20052;-69
2022/04/20 08:03:15;;;;;;;27.55;7.22;;;;;;;37.29;28.41;98022.47;4927136;29;20154;-70
2022/04/20 08:06:04;;;;;;;26.85;5.72;;;;;;;37.31;30.52;98009.63;4930193;29;20059;-69
2022/04/20 08:08:54;;;;;;;25.20;7.07;;;;;;;37.28;30.95;98004.72;4927686;29;20052;-70
2022/04/20 08:11:36;;;;;;;23.80;7.30;;;;;;;37.19;29.23;98000.75;4918800;29;20055;-68
2022/04/20 08:14:25;;;;;;;31.02;8.02;;;;;;;37.12;29.50;98000.00;4930005;29;20649;-68
2022/04/20 08:17:25;;;;;;;16.90;6.00;;;;;;;37.13;30.69;97996.28;4923212;29;20055;-69
2022/04/20 08:20:34;;;;;;;23.88;6.97;;;;;;;36.90;32.22;97980.13;4900971;29;20044;-68
2022/04/20 08:23:17;;;;;;;27.40;7.15;;;;;;;36.78;30.50;97994.38;4926269;29;20051;-69
2022/04/20 08:26:06;;;;;;;25.67;6.32;;;;;;;36.74;29.61;97982.44;4927001;29;20052;-69
2022/04/20 08:28:48;;;;;;;27.52;6.22;;;;;;;36.71;30.66;97977.53;4926046;29;20060;-68
2022/04/20 08:31:37;;;;;;;16.77;5.32;;;;;;;36.73;30.04;97986.16;4918700;29;20062;-67
2022/04/20 08:34:19;;;;;;;16.88;6.25;;;;;;;36.75;28.92;97976.00;4930429;29;20538;-66
2022/04/20 08:37:22;;;;;;;22.38;7.03;;;;;;;36.74;30.83;97960.94;4916227;29;20067;-66
2022/04/20 08:40:10;;;;;;;24.17;6.18;;;;;;;36.66;31.10;97963.97;4927328;29;20123;-66
2022/04/20 08:43:07;;;;;;;24.85;9.32;;;;;;;36.64;32.30;97955.28;4928756;29;20047;-66
2022/04/20 08:46:02;;;;;;;22.83;7.30;;;;;;;36.66;31.14;97958.59;4927045;29;20098;-67
2022/04/20 08:48:44;;;;;;;26.27;7.50;;;;;;;36.64;30.99;97954.50;4933720;28;20475;-68
2022/04/20 08:54:33;;;;;;;28.50;6.03;;;;;;;36.67;31.15;97940.63;4944088;28;20094;-67
2022/04/20 08:57:22;;;;;;;31.25;7.63;;;;;;;36.63;30.42;97936.75;4946002;29;20082;-68
2022/04/20 09:00:11;;;;;;;20.05;5.55;;;;;;;36.34;28.70;97930.34;4931622;29;20047;-68
2022/04/20 09:03:03;;;;;;;24.52;7.00;;;;;;;36.36;31.88;97925.56;4948438;29;20059;-68
2022/04/20 09:05:45;;;;;;;24.67;6.55;;;;;;;36.33;31.04;97924.16;4947297;29;20138;-68
2022/04/20 09:08:34;;;;;;;20.42;6.82;;;;;;;36.28;32.07;97916.00;4946644;29;20514;-66
2022/04/20 09:11:16;;;;;;;23.30;5.97;;;;;;;36.20;32.41;97912.81;4946344;29;20484;-67
2022/04/20 09:14:18;;;;;;;23.23;7.82;;;;;;;36.07;32.86;97900.38;4944764;29;20082;-66
2022/04/20 09:17:01;;;;;;;18.05;6.32;;;;;;;36.12;30.18;97905.06;4946102;29;20062;-67
2022/04/20 09:20:00;;;;;;;23.08;7.07;;;;;;;36.04;33.12;97898.97;4948221;28;20093;-66
2022/04/20 09:22:57;;;;;;;17.83;6.85;;;;;;;35.89;34.16;97892.38;4944067;28;20687;-67
2022/04/20 09:25:52;;;;;;;18.63;6.25;;;;;;;35.80;35.45;97888.38;4946708;28;20083;-67
2022/04/20 09:28:36;;;;;;;19.15;6.45;;;;;;;35.70;30.35;97888.88;4947831;28;20130;-67
2022/04/20 09:31:51;;;;;;;20.77;6.82;;;;;;;35.78;33.15;97885.09;4946866;29;20067;-66
2022/04/20 09:34:56;;;;;;;21.45;6.22;;;;;;;35.79;31.70;97878.69;4946483;29;20178;-66
2022/04/20 09:37:38;;;;;;;15.18;5.28;;;;;;;35.60;36.34;97870.63;4946529;29;20063;-67
2022/04/20 09:40:46;;;;;;;19.73;6.88;;;;;;;35.57;31.58;97867.59;4946938;29;20213;-66
2022/04/20 09:43:35;;;;;;;18.23;6.10;;;;;;;35.62;31.74;97871.22;4945285;29;20067;-67
2022/04/20 09:49:38;;;;;;;40.85;6.90;;;;;;;35.39;34.72;97859.56;4943322;28;20051;-67
2022/04/20 09:52:49;;;;;;;34.13;6.43;;;;;;;35.33;31.44;97849.75;4946480;29;20047;-69
2022/04/20 09:55:41;;;;;;;30.75;7.53;;;;;;;35.18;34.14;97845.56;4945877;28;20479;-66
2022/04/20 09:58:34;;;;;;;31.45;7.53;;;;;;;35.12;36.97;97842.97;4948040;28;20055;-66
2022/04/20 10:01:35;;;;;;;28.08;7.70;;;;;;;35.11;35.29;97842.13;4946779;29;20138;-67
2022/04/20 10:04:23;;;;;;;19.88;5.75;;;;;;;35.16;33.98;97834.25;4944141;29;20051;-68
2022/04/20 10:07:05;;;;;;;20.98;6.25;;;;;;;34.95;35.00;97836.53;4944968;29;20091;-66
2022/04/20 10:09:54;;;;;;;19.58;6.10;;;;;;;34.90;34.75;97839.88;4946104;29;20066;-67
2022/04/20 10:12:39;;;;;;;26.10;6.22;;;;;;;34.94;33.32;97841.09;4946118;29;20043;-66
2022/04/20 10:18:40;;;;;;;15.68;5.32;;;;;;;34.92;33.83;97822.56;4940320;29;20479;-66
2022/04/20 10:21:25;;;;;;;26.52;5.75;;;;;;;34.80;35.32;97820.84;4946797;29;20059;-66
2022/04/20 10:24:18;;;;;;;13.18;5.70;;;;;;;34.64;36.44;97821.38;4947011;29;20083;-66
2022/04/20 10:27:08;;;;;;;25.20;5.82;;;;;;;34.59;38.21;97813.16;4940269;28;20058;-67
2022/04/20 10:30:09;;;;;;;21.33;5.45;;;;;;;34.54;37.09;97808.50;4940056;28;20062;-66
2022/04/20 10:32:59;;;;;;;24.35;6.25;;;;;;;34.63;35.00;97817.06;4944156;29;20058;-65
2022/04/20 10:36:03;;;;;;;32.65;5.78;;;;;;;34.66;36.30;97809.41;4929012;29;20035;-65
2022/04/20 10:39:20;;;;;;;19.88;6.03;;;;;;;34.73;34.29;97806.69;4930377;29;20573;-67
2022/04/20 10:42:21;;;;;;;16.02;5.78;;;;;;;34.82;33.69;97800.00;4944837;29;20065;-67
2022/04/20 10:45:05;;;;;;;28.80;6.50;;;;;;;35.07;31.54;97803.44;4940960;28;20126;-66
2022/04/20 10:48:03;;;;;;;27.25;5.97;;;;;;;35.13;32.35;97796.34;4943654;29;20051;-67
2022/04/20 10:51:15;;;;;;;23.15;5.55;;;;;;;35.28;30.93;97797.63;4934783;29;20043;-67
2022/04/20 10:54:34;;;;;;;29.38;5.90;;;;;;;35.39;30.32;97795.25;4935112;29;20529;-66
2022/04/20 10:57:39;;;;;;;16.42;5.72;;;;;;;35.31;30.10;97788.34;4932075;29;20058;-66
2022/04/20 11:00:25;;;;;;;31.05;6.05;;;;;;;35.23;33.13;97785.97;4935267;29;20083;-65
2022/04/20 11:03:15;;;;;;;28.40;7.97;;;;;;;35.10;34.48;97781.56;4931090;29;20781;-65
2022/04/20 11:05:57;;;;;;;28.17;5.95;;;;;;;35.04;34.09;97781.66;4928096;29;20058;-65
2022/04/20 11:08:51;;;;;;;29.67;6.65;;;;;;;34.92;34.13;97773.53;4924173;29;20549;-66
2022/04/20 11:19:16;;;;;;;24.65;5.90;;;;;;;34.82;32.13;97775.91;4910150;29;20538;-65
2022/04/20 11:22:14;;;;;;;24.73;6.28;;;;;;;34.90;32.06;97760.38;4911249;29;20056;-63
2022/04/20 11:25:07;;;;;;;42.10;7.07;;;;;;;35.02;30.62;97768.47;4934785;29;20052;-66
2022/04/20 11:27:49;;;;;;;25.38;6.13;;;;;;;34.98;31.14;97766.47;4925720;29;20074;-66
2022/04/20 11:30:42;;;;;;;25.80;5.97;;;;;;;34.92;31.32;97758.28;4931007;29;20051;-66
2022/04/20 11:33:32;;;;;;;25.73;6.18;;;;;;;34.90;30.98;97764.91;4924074;29;20692;-66
2022/04/20 11:36:13;;;;;;;19.95;5.75;;;;;;;34.92;31.32;97757.47;4927568;29;20047;-66
2022/04/20 11:39:02;;;;;;;18.17;5.22;;;;;;;34.88;31.25;97761.66;4924605;29;20059;-65
2022/04/20 11:41:49;;;;;;;30.25;6.45;;;;;;;34.87;30.08;97760.00;4928701;29;20055;-66
2022/04/20 11:44:40;;;;;;;25.52;5.25;;;;;;;34.87;30.56;97755.47;4923402;29;20052;-66
2022/04/20 11:47:33;;;;;;;31.67;5.50;;;;;;;35.01;29.35;97760.66;4909272;29;20051;-66
2022/04/20 11:50:25;;;;;;;26.88;6.80;;;;;;;34.95;29.86;97758.91;4908181;29;20059;-66
2022/04/20 11:53:19;;;;;;;33.70;5.70;;;;;;;35.02;29.19;97765.00;4921172;29;20052;-67
2022/04/20 11:56:15;;;;;;;28.15;6.57;;;;;;;35.09;29.35;97768.41;4907995;29;20043;-66
2022/04/20 11:59:08;;;;;;;35.78;6.30;;;;;;;35.14;28.75;97766.69;4918249;29;20047;-65
2022/04/20 12:01:57;;;;;;;31.33;5.53;;;;;;;35.01;29.00;97758.81;4924651;29;20052;-66
2022/04/20 12:04:40;;;;;;;28.00;5.60;;;;;;;34.97;29.02;97760.28;4922523;29;20078;-68
2022/04/20 12:07:32;;;;;;;31.05;5.63;;;;;;;34.97;28.99;97757.59;4925755;29;20830;-67
2022/04/20 12:10:14;;;;;;;35.88;6.13;;;;;;;34.90;32.01;97756.88;4920035;29;20059;-65
2022/04/20 12:13:04;;;;;;;34.38;6.95;;;;;;;34.74;31.19;97757.47;4917668;29;20745;-68
2022/04/20 12:15:46;;;;;;;27.73;6.05;;;;;;;34.60;33.19;97747.91;4923717;29;20052;-66
2022/04/20 12:18:39;;;;;;;29.05;5.93;;;;;;;34.45;32.53;97751.75;4926085;28;20052;-66
2022/04/20 12:21:49;;;;;;;28.85;6.90;;;;;;;34.44;31.28;97747.44;4911402;29;20056;-67
2022/04/20 12:24:41;;;;;;;32.75;7.18;;;;;;;34.41;33.74;97752.41;4929259;29;20059;-68
2022/04/20 12:27:30;;;;;;;29.63;6.45;;;;;;;34.31;32.86;97760.13;4921499;29;20052;-67
2022/04/20 12:30:12;;;;;;;36.85;6.20;;;;;;;34.34;30.86;97755.16;4926206;29;20054;-66
2022/04/20 12:33:04;;;;;;;24.30;6.50;;;;;;;34.20;33.80;97758.97;4924951;29;20459;-65
2022/04/20 12:36:08;;;;;;;37.10;6.70;;;;;;;34.11;33.56;97761.09;4928925;29;20058;-68
2022/04/20 12:39:01;;;;;;;39.30;6.75;;;;;;;34.02;33.12;97751.69;4925859;29;20056;-67
2022/04/20 12:41:47;;;;;;;36.22;7.72;;;;;;;33.87;33.29;97756.53;4911746;29;21027;-69
2022/04/20 12:44:59;;;;;;;35.00;7.35;;;;;;;33.72;37.26;97756.84;4928739;29;20146;-66
2022/04/20 12:47:40;;;;;;;26.30;6.70;;;;;;;33.55;34.32;97755.69;4909995;29;20048;-66
2022/04/20 12:50:45;;;;;;;33.50;6.75;;;;;;;33.53;35.02;97763.09;4943073;28;20051;-68
2022/04/20 12:53:20;;;;;;;36.70;7.97;;;;;;;33.47;34.90;97760.47;4944719;28;20646;-66
2022/04/20 13:02:16;;;;;;;25.23;6.13;;;;;;;33.44;36.96;97775.88;4944626;29;20065;-65
2022/04/20 13:05:05;;;;;;;38.53;7.00;;;;;;;33.36;36.10;97770.00;4947824;29;20106;-65
2022/04/20 13:07:47;;;;;;;33.33;6.38;;;;;;;33.34;35.37;97777.38;4947698;29;20083;-65
2022/04/20 13:10:37;;;;;;;37.97;7.07;;;;;;;33.31;34.90;97772.47;4947049;29;20078;-66
2022/04/20 13:13:29;;;;;;;31.50;7.78;;;;;;;33.14;36.21;97773.94;4946828;29;20274;-65
2022/04/20 13:16:19;;;;;;;32.70;6.75;;;;;;;33.06;34.95;97775.81;4946577;29;20051;-66
2022/04/20 13:19:01;;;;;;;34.65;7.70;;;;;;;33.01;35.29;97785.50;4949398;29;20055;-66
2022/04/20 13:21:51;;;;;;;33.78;7.30;;;;;;;32.89;39.37;97779.16;4931807;29;20054;-66
2022/04/20 13:27:55;;;;;;;36.22;7.40;;;;;;;32.65;39.79;97780.63;4930010;29;20054;-66
2022/04/20 13:30:51;;;;;;;40.15;7.03;;;;;;;32.46;41.02;97789.47;4929356;29;20464;-66
2022/04/20 13:33:27;;;;;;;30.88;6.38;;;;;;;32.29;42.79;97781.09;4931193;29;20073;-65
2022/04/20 13:36:15;;;;;;;35.80;6.82;;;;;;;32.18;41.59;97782.50;4948058;29;20055;-65
2022/04/20 13:38:57;;;;;;;46.58;8.57;;;;;;;32.06;42.32;97788.63;4946603;29;20454;-65
2022/04/20 13:41:46;;;;;;;36.65;7.97;;;;;;;31.93;42.12;97792.91;4948933;28;20114;-65
2022/04/20 13:44:35;;;;;;;46.15;7.65;;;;;;;31.94;39.43;97793.75;4948310;28;20627;-65
2022/04/20 13:47:24;;;;;;;38.85;8.48;;;;;;;31.98;41.48;97794.16;4947855;29;20043;-65
2022/04/20 13:50:08;;;;;;;38.60;8.20;;;;;;;31.96;42.35;97797.03;4948712;29;20379;-65
2022/04/20 13:52:58;;;;;;;39.25;8.82;;;;;;;31.82;42.80;97798.84;4948093;29;20048;-65
2022/04/20 13:55:40;;;;;;;25.98;6.80;;;;;;;31.66;44.98;97798.41;4947952;29;20050;-66
2022/04/20 13:58:31;;;;;;;45.70;8.90;;;;;;;31.61;43.73;97803.50;4945967;29;20062;-65
2022/04/20 14:01:20;;;;;;;33.30;8.18;;;;;;;31.46;46.53;97807.13;4947533;29;20062;-65